Indianapolis, Indiana
Traffic Map
Current Weather Conditions
Indianapolis, Indiana
Overcast
Overcast
59°
Feels Like: 59°
Wind Chill: 59° Ceiling: 18000
Heat Index: 59° Visibility: 10mi
Dew Point: 47° Wind: 3mph
Humidity: 64% Direction: 160° (SSE)
Pressure: 29.93in Gusts: 0mph
Raw Report DataKIND 230654Z 16003KT 10SM SCT120 OVC180 15/08 A2993 RMK AO2 SLP130 T01500083
Traffic Incident Summary
Active as of:
Severity:
Category:
InformationThere was an issue retrieving the traffic information for this location. Please try a different location or try again shortly.
Advertisements
Track Severe Weather on mobile